North Battleford, Canada
Current Conditions -  °F | °C
As of 12:00 PM on Saturday 25 Oct 2014 (Local Time) from CYQW Reporting Station
Broken Clouds Broken Clouds  
Wind Chill: 36°   Ceiling: 15000
Heat Index: 41°   Visibility: 9mi
Dew Point: 28°   Wind: 7mph
Humidity: 61%   Direction: 360°N
Pressure: 30.03"   Gusts: NA
Location:  52.78°N, 108.3°W
Report Text: CYQW 251800Z AUTO 36006KT 9SM BKN150 05/M02 A3003 RMK SLP192
Loading
Personal Weather Stations






























Interactive Weather Map
Tropical Storm Tracking
New forecast layout! Learn more

10-Day Weather Forecast

Advertisements
Track Severe Weather on mobile